createdAt,value
2018-12-01T00:02:28.496Z,17.73
2018-12-01T00:06:31.986Z,16.77
2018-12-01T00:10:35.467Z,18.80
2018-12-01T00:14:38.941Z,18.47
2018-12-01T00:18:42.487Z,16.60
2018-12-01T00:22:46.022Z,17.10
2018-12-01T00:26:49.569Z,16.13
2018-12-01T00:30:53.084Z,16.67
2018-12-01T00:34:56.596Z,19.27
2018-12-01T00:39:00.141Z,18.97
2018-12-01T00:43:03.640Z,20.53
2018-12-01T00:47:07.123Z,18.70
2018-12-01T00:51:10.629Z,16.97
2018-12-01T00:55:16.037Z,20.83
2018-12-01T00:59:19.632Z,17.93
2018-12-01T01:03:23.129Z,18.63
2018-12-01T01:07:26.675Z,19.83
2018-12-01T01:11:30.249Z,21.50
2018-12-01T01:15:33.739Z,19.37
2018-12-01T01:19:37.298Z,23.07
2018-12-01T01:23:40.811Z,19.37
2018-12-01T01:27:44.404Z,20.73
2018-12-01T01:31:47.902Z,17.73
2018-12-01T01:35:51.478Z,19.20
2018-12-01T01:39:55.019Z,19.13
2018-12-01T01:43:58.559Z,21.27
2018-12-01T01:48:02.136Z,21.90
2018-12-01T01:52:06.030Z,22.90
2018-12-01T01:56:09.467Z,22.23
2018-12-01T02:00:17.876Z,19.23
2018-12-01T02:04:21.356Z,21.53
2018-12-01T02:08:24.986Z,22.10
2018-12-01T02:12:28.445Z,22.90
2018-12-01T02:16:31.925Z,21.37
2018-12-01T02:20:35.499Z,20.30
2018-12-01T02:24:38.999Z,22.90
2018-12-01T02:28:42.564Z,23.63
2018-12-01T02:32:46.177Z,22.93
2018-12-01T02:36:49.655Z,19.50
2018-12-01T02:40:53.196Z,20.53
2018-12-01T02:45:08.429Z,19.00
2018-12-01T02:49:11.857Z,22.93
2018-12-01T02:53:15.397Z,23.20
2018-12-01T02:57:18.857Z,25.13
2018-12-01T03:01:22.425Z,20.13
2018-12-01T03:05:26.019Z,22.63
2018-12-01T03:09:29.600Z,21.87
2018-12-01T03:13:33.089Z,23.13
2018-12-01T03:17:36.554Z,21.20
2018-12-01T03:21:40.053Z,21.53
2018-12-01T03:25:43.532Z,22.70
2018-12-01T03:29:47.024Z,22.70
2018-12-01T03:33:50.514Z,21.80
2018-12-01T03:37:54.038Z,25.53
2018-12-01T03:41:57.676Z,23.17
2018-12-01T03:46:01.181Z,24.00
2018-12-01T03:50:05.488Z,20.63
2018-12-01T03:54:09.314Z,23.23
2018-12-01T03:58:12.852Z,20.43
2018-12-01T04:02:16.343Z,23.03
2018-12-01T04:06:19.907Z,23.07
2018-12-01T04:10:23.398Z,21.57
2018-12-01T04:14:26.909Z,24.23
2018-12-01T04:18:30.459Z,22.63
2018-12-01T04:22:34.046Z,23.60
2018-12-01T04:26:37.540Z,22.43
2018-12-01T04:30:41.079Z,22.10
2018-12-01T04:34:44.622Z,23.23
2018-12-01T04:38:48.130Z,24.60
2018-12-01T04:42:51.687Z,21.17
2018-12-01T04:46:55.196Z,24.77
2018-12-01T04:50:58.710Z,25.40
2018-12-01T04:55:02.241Z,22.17
2018-12-01T04:59:05.741Z,26.40
2018-12-01T05:03:09.262Z,23.33
2018-12-01T05:07:12.735Z,22.43
2018-12-01T05:11:16.221Z,25.53
2018-12-01T05:15:20.094Z,25.37
2018-12-01T05:19:23.591Z,25.27
2018-12-01T05:23:27.090Z,28.23
2018-12-01T05:27:30.625Z,24.93
2018-12-01T05:31:34.164Z,21.43
2018-12-01T05:35:38.183Z,22.27
2018-12-01T05:39:41.704Z,26.87
2018-12-01T05:43:45.332Z,25.07
2018-12-01T05:47:48.871Z,25.20
2018-12-01T05:51:52.382Z,23.33
2018-12-01T05:55:55.912Z,22.37
2018-12-01T05:59:59.380Z,22.87
2018-12-01T06:04:02.881Z,22.30
2018-12-01T06:08:07.302Z,27.03
2018-12-01T06:12:10.838Z,24.47
2018-12-01T06:16:14.410Z,23.30
2018-12-01T06:20:21.102Z,23.23
2018-12-01T06:24:24.831Z,29.83
2018-12-01T06:28:28.356Z,28.33
2018-12-01T06:32:31.883Z,23.13
2018-12-01T06:36:35.337Z,27.10
2018-12-01T06:40:38.856Z,25.47
2018-12-01T06:44:42.325Z,24.07
2018-12-01T06:48:46.539Z,27.37
2018-12-01T06:52:50.438Z,24.43
2018-12-01T06:56:53.972Z,28.33
2018-12-01T07:00:57.509Z,29.33
2018-12-01T07:05:01.096Z,28.40
2018-12-01T07:09:07.464Z,28.90
2018-12-01T07:13:10.903Z,28.53
2018-12-01T07:17:14.961Z,28.03
2018-12-01T07:21:18.481Z,25.00
2018-12-01T07:25:22.079Z,25.53
2018-12-01T07:29:25.575Z,27.77
2018-12-01T07:33:29.079Z,27.37
2018-12-01T07:37:32.588Z,24.13
2018-12-01T07:41:36.042Z,26.37
2018-12-01T07:45:39.584Z,23.83
2018-12-01T07:49:43.057Z,25.70
2018-12-01T07:53:46.552Z,26.40
2018-12-01T07:57:50.082Z,27.00
2018-12-01T08:01:53.614Z,27.03
2018-12-01T08:05:57.120Z,25.87
2018-12-01T08:10:00.639Z,27.63
2018-12-01T08:14:04.084Z,26.50
2018-12-01T08:18:07.776Z,26.10
2018-12-01T08:22:11.282Z,26.33
2018-12-01T08:26:15.096Z,26.13
2018-12-01T08:30:30.723Z,29.43
2018-12-01T08:34:34.227Z,25.80
2018-12-01T08:38:37.701Z,29.67
2018-12-01T08:42:41.193Z,25.67
2018-12-01T08:46:44.713Z,25.23
2018-12-01T08:50:48.273Z,26.53
2018-12-01T08:54:51.740Z,25.63
2018-12-01T08:58:55.288Z,31.13
2018-12-01T09:03:01.216Z,23.50
2018-12-01T09:07:04.692Z,28.40
2018-12-01T09:11:08.253Z,27.57
2018-12-01T09:15:12.631Z,23.70
2018-12-01T09:19:16.085Z,26.43
2018-12-01T09:23:19.559Z,25.30
2018-12-01T09:27:23.063Z,23.60
2018-12-01T09:31:26.655Z,25.77
2018-12-01T09:35:30.629Z,27.33
2018-12-01T09:39:34.155Z,27.33
2018-12-01T09:43:37.644Z,27.40
2018-12-01T09:47:41.838Z,26.43
2018-12-01T09:51:45.365Z,29.70
2018-12-01T09:55:49.165Z,26.40
2018-12-01T09:59:52.634Z,26.70
2018-12-01T10:03:56.167Z,28.77
2018-12-01T10:07:59.722Z,25.33
2018-12-01T10:12:03.226Z,31.73
2018-12-01T10:16:07.140Z,29.53
2018-12-01T10:20:12.197Z,24.70
2018-12-01T10:24:15.691Z,25.87
2018-12-01T10:28:19.172Z,29.53
2018-12-01T10:32:22.654Z,28.00
2018-12-01T10:36:26.166Z,29.20
2018-12-01T10:40:29.677Z,30.73
2018-12-01T10:44:33.160Z,27.37
2018-12-01T10:48:36.755Z,31.07
2018-12-01T10:52:40.704Z,30.93
2018-12-01T10:56:44.144Z,29.67
2018-12-01T11:00:54.024Z,27.23
2018-12-01T11:04:57.567Z,31.93
2018-12-01T11:09:01.128Z,28.50
2018-12-01T11:13:04.683Z,29.87
2018-12-01T11:17:08.144Z,29.83
2018-12-01T11:21:11.633Z,27.30
2018-12-01T11:25:15.146Z,33.00
2018-12-01T11:29:18.653Z,29.13
2018-12-01T11:33:22.127Z,29.97
2018-12-01T11:37:25.631Z,33.03
2018-12-01T11:41:29.135Z,32.23
2018-12-01T11:45:32.645Z,30.07
2018-12-01T11:49:36.111Z,32.17
2018-12-01T11:53:39.600Z,31.27
2018-12-01T11:57:43.118Z,33.27
2018-12-01T12:01:46.607Z,34.13
2018-12-01T12:05:50.092Z,31.93
2018-12-01T12:09:53.689Z,29.87
2018-12-01T12:13:57.526Z,35.40
2018-12-01T12:18:02.794Z,32.90
2018-12-01T12:22:06.375Z,30.63
2018-12-01T12:26:10.197Z,29.53
2018-12-01T12:30:15.854Z,33.23
2018-12-01T12:34:19.323Z,34.07
2018-12-01T12:38:22.772Z,30.87
2018-12-01T12:42:26.331Z,33.70
2018-12-01T12:46:29.849Z,31.83
2018-12-01T12:50:33.305Z,31.53
2018-12-01T12:54:36.903Z,31.43
2018-12-01T12:58:41.000Z,29.67
2018-12-01T13:02:49.829Z,32.07
2018-12-01T13:06:53.372Z,29.90
2018-12-01T13:10:56.875Z,32.80
2018-12-01T13:15:00.374Z,32.03
2018-12-01T13:19:04.958Z,33.60
2018-12-01T13:23:08.846Z,34.07
2018-12-01T13:27:12.317Z,31.23
2018-12-01T13:31:15.832Z,31.27
2018-12-01T13:35:19.400Z,32.80
2018-12-01T13:39:22.879Z,31.20
2018-12-01T13:43:26.371Z,32.23
2018-12-01T13:47:29.811Z,39.03
2018-12-01T13:51:33.643Z,31.30
2018-12-01T13:55:37.204Z,35.47
2018-12-01T13:59:45.556Z,34.87
2018-12-01T14:03:50.149Z,33.57
2018-12-01T14:07:53.602Z,31.60
2018-12-01T14:11:57.083Z,31.30
2018-12-01T14:16:00.541Z,31.40
2018-12-01T14:20:04.182Z,33.53
2018-12-01T14:24:08.037Z,37.83
2018-12-01T14:28:12.507Z,33.87
2018-12-01T14:32:15.990Z,33.77
2018-12-01T14:36:19.512Z,32.57
2018-12-01T14:40:22.991Z,39.77
2018-12-01T14:44:26.460Z,35.17
2018-12-01T14:48:29.930Z,32.27
2018-12-01T14:52:33.409Z,34.57
2018-12-01T14:56:36.836Z,37.30
2018-12-01T15:00:40.336Z,36.27
2018-12-01T15:04:43.773Z,39.17
2018-12-01T15:08:47.290Z,39.27
2018-12-01T15:12:50.864Z,36.63
2018-12-01T15:16:54.519Z,35.57
2018-12-01T15:20:58.160Z,38.50
2018-12-01T15:25:01.661Z,37.10
2018-12-01T15:29:05.633Z,37.43
2018-12-01T15:33:11.539Z,36.63
2018-12-01T15:37:15.039Z,42.00
2018-12-01T15:41:18.540Z,39.23
2018-12-01T15:45:22.719Z,40.80
2018-12-01T15:49:26.404Z,42.13
2018-12-01T15:53:30.073Z,34.60
2018-12-01T15:57:33.896Z,35.43
2018-12-01T16:01:37.542Z,37.50
2018-12-01T16:05:41.040Z,34.77
2018-12-01T16:09:44.525Z,34.50
2018-12-01T16:13:48.041Z,38.20
2018-12-01T16:17:51.574Z,41.07
2018-12-01T16:21:55.612Z,32.30
2018-12-01T16:25:59.234Z,38.43
2018-12-01T16:30:02.832Z,35.83
2018-12-01T16:34:06.799Z,35.17
2018-12-01T16:38:11.824Z,40.80
2018-12-01T16:42:15.287Z,39.67
2018-12-01T16:46:18.801Z,37.27
2018-12-01T16:50:22.302Z,42.20
2018-12-01T16:54:25.779Z,37.07
2018-12-01T16:58:29.284Z,35.73
2018-12-01T17:02:32.787Z,38.80
2018-12-01T17:06:36.249Z,36.13
2018-12-01T17:10:39.766Z,35.77
2018-12-01T17:14:43.317Z,36.27
2018-12-01T17:18:46.832Z,40.80
2018-12-01T17:22:51.888Z,37.97
2018-12-01T17:26:56.229Z,36.97
2018-12-01T17:30:59.735Z,35.87
2018-12-01T17:35:03.271Z,42.80
2018-12-01T17:39:08.659Z,41.67
2018-12-01T17:43:14.283Z,38.60
2018-12-01T17:47:17.766Z,35.43
2018-12-01T17:51:21.231Z,38.83
2018-12-01T17:55:26.493Z,39.37
2018-12-01T17:59:30.282Z,36.30
2018-12-01T18:03:33.799Z,40.87
2018-12-01T18:07:37.291Z,39.93
2018-12-01T18:11:40.828Z,40.47
2018-12-01T18:15:44.341Z,38.83
2018-12-01T18:19:47.864Z,43.37
2018-12-01T18:23:52.049Z,36.30
2018-12-01T18:27:56.755Z,34.23
2018-12-01T18:32:00.219Z,36.67
2018-12-01T18:36:03.712Z,38.47
2018-12-01T18:40:25.984Z,36.30
2018-12-01T18:44:29.464Z,35.27
2018-12-01T18:48:33.031Z,39.63
2018-12-01T18:52:36.503Z,40.23
2018-12-01T18:56:44.103Z,41.13
2018-12-01T19:00:49.775Z,41.70
2018-12-01T19:04:53.259Z,41.43
2018-12-01T19:08:56.802Z,37.30
2018-12-01T19:13:00.299Z,43.83
2018-12-01T19:17:03.841Z,41.73
2018-12-01T19:21:07.378Z,43.43
2018-12-01T19:25:12.230Z,45.80
2018-12-01T19:29:15.726Z,41.43
2018-12-01T19:33:20.598Z,46.83
2018-12-01T19:37:24.115Z,38.93
2018-12-01T19:41:27.624Z,43.93
2018-12-01T19:45:31.149Z,46.97
2018-12-01T19:49:34.662Z,44.83
2018-12-01T19:53:38.149Z,45.60
2018-12-01T19:57:42.267Z,46.87
2018-12-01T20:01:45.778Z,46.77
2018-12-01T20:05:49.221Z,45.40
2018-12-01T20:09:52.709Z,47.87
2018-12-01T20:13:56.168Z,49.53
2018-12-01T20:18:01.319Z,47.90
2018-12-01T20:22:04.876Z,45.97
2018-12-01T20:26:08.470Z,48.27
2018-12-01T20:30:22.288Z,47.57
2018-12-01T20:34:25.788Z,51.37
2018-12-01T20:38:46.349Z,49.20
2018-12-01T20:42:49.826Z,50.47
2018-12-01T20:46:53.332Z,48.50
2018-12-01T20:50:57.134Z,55.57
2018-12-01T20:55:00.643Z,52.40
2018-12-01T20:59:04.108Z,45.70
2018-12-01T21:03:07.603Z,52.43
2018-12-01T21:07:11.110Z,51.13
2018-12-01T21:11:15.486Z,46.03
2018-12-01T21:15:19.016Z,43.60
2018-12-01T21:19:22.478Z,51.93
2018-12-01T21:23:25.942Z,52.50
2018-12-01T21:27:29.464Z,56.67
2018-12-01T21:31:32.992Z,48.53
2018-12-01T21:35:36.483Z,49.50
2018-12-01T21:39:39.987Z,52.10
2018-12-01T21:43:43.495Z,44.90
2018-12-01T21:47:47.040Z,47.90
2018-12-01T21:51:50.554Z,49.37
2018-12-01T21:55:54.142Z,47.40
2018-12-01T21:59:58.063Z,52.80
2018-12-01T22:04:01.503Z,54.07
2018-12-01T22:08:05.412Z,53.90
2018-12-01T22:12:08.932Z,49.77
2018-12-01T22:16:12.460Z,47.07
2018-12-01T22:20:23.436Z,54.33
2018-12-01T22:24:26.950Z,47.70
2018-12-01T22:28:35.330Z,47.33
2018-12-01T22:32:34.041Z,55.00
2018-12-01T22:36:37.517Z,47.77
2018-12-01T22:40:42.151Z,48.10
2018-12-01T22:44:45.915Z,52.43
2018-12-01T22:48:49.837Z,51.70
2018-12-01T22:52:53.913Z,50.63
2018-12-01T22:56:57.387Z,47.70
2018-12-01T23:01:00.875Z,48.87
2018-12-01T23:05:04.447Z,43.37
2018-12-01T23:09:08.034Z,51.60
2018-12-01T23:13:11.576Z,55.80
2018-12-01T23:17:15.077Z,52.17
2018-12-01T23:21:20.715Z,50.30
2018-12-01T23:25:22.119Z,49.90
2018-12-01T23:29:25.663Z,43.90
2018-12-01T23:33:29.495Z,52.50
2018-12-01T23:37:32.959Z,57.70
2018-12-01T23:41:36.484Z,48.33
2018-12-01T23:45:41.281Z,57.00
2018-12-01T23:49:44.732Z,55.20
2018-12-01T23:53:48.548Z,56.13
2018-12-01T23:57:52.062Z,50.57
